createdAt,value
2023-05-08T00:00:31.162Z,14.70
2023-05-08T00:02:33.058Z,14.70
2023-05-08T00:04:34.856Z,14.70
2023-05-08T00:06:36.588Z,14.70
2023-05-08T00:08:39.378Z,14.70
2023-05-08T00:10:41.200Z,14.70
2023-05-08T00:12:42.844Z,14.70
2023-05-08T00:14:44.565Z,14.70
2023-05-08T00:16:46.525Z,14.70
2023-05-08T00:18:48.344Z,14.70
2023-05-08T00:20:50.073Z,14.80
2023-05-08T00:22:51.672Z,14.70
2023-05-08T00:24:53.274Z,14.70
2023-05-08T00:26:54.918Z,14.70
2023-05-08T00:28:56.568Z,14.80
2023-05-08T00:30:59.769Z,14.80
2023-05-08T00:33:01.467Z,14.70
2023-05-08T00:35:03.490Z,14.70
2023-05-08T00:37:05.263Z,14.70
2023-05-08T00:39:07.009Z,14.60
2023-05-08T00:41:08.829Z,14.60
2023-05-08T00:43:10.494Z,14.70
2023-05-08T00:45:12.649Z,14.60
2023-05-08T00:47:14.429Z,14.60
2023-05-08T00:49:16.125Z,14.60
2023-05-08T00:51:17.915Z,14.60
2023-05-08T00:53:22.426Z,14.60
2023-05-08T00:55:24.446Z,14.60
2023-05-08T00:57:26.075Z,14.60
2023-05-08T00:59:27.803Z,14.60
2023-05-08T01:01:29.730Z,14.60
2023-05-08T01:03:32.935Z,14.60
2023-05-08T01:05:35.362Z,14.50
2023-05-08T01:07:38.861Z,14.50
2023-05-08T01:09:40.603Z,14.50
2023-05-08T01:11:52.319Z,14.50
2023-05-08T01:14:23.352Z,14.50
2023-05-08T01:16:36.911Z,14.60
2023-05-08T01:18:42.635Z,14.60
2023-05-08T01:21:01.138Z,14.50
2023-05-08T01:23:28.868Z,14.60
2023-05-08T01:25:46.465Z,14.50
2023-05-08T01:28:06.449Z,14.50
2023-05-08T01:30:26.700Z,14.50
2023-05-08T01:32:35.150Z,14.50
2023-05-08T01:34:41.005Z,14.60
2023-05-08T01:36:54.338Z,14.50
2023-05-08T01:39:10.069Z,14.50
2023-05-08T01:41:21.606Z,14.50
2023-05-08T01:43:43.488Z,14.50
2023-05-08T01:45:46.790Z,14.60
2023-05-08T01:47:51.147Z,14.60
2023-05-08T01:50:11.920Z,14.60
2023-05-08T01:52:20.893Z,14.60
2023-05-08T01:54:24.415Z,14.60
2023-05-08T01:56:28.520Z,14.60
2023-05-08T01:58:30.638Z,14.60
2023-05-08T02:00:32.633Z,14.50
2023-05-08T02:02:34.656Z,14.50
2023-05-08T02:04:36.924Z,14.50
2023-05-08T02:06:38.822Z,14.60
2023-05-08T02:08:41.082Z,14.50
2023-05-08T02:10:43.324Z,14.50
2023-05-08T02:12:45.689Z,14.60
2023-05-08T02:14:47.912Z,14.60
2023-05-08T02:16:50.664Z,14.60
2023-05-08T02:18:54.370Z,14.60
2023-05-08T02:20:56.838Z,14.50
2023-05-08T02:22:58.989Z,14.60
2023-05-08T02:25:01.073Z,14.60
2023-05-08T02:27:02.835Z,14.60
2023-05-08T02:29:04.591Z,14.50
2023-05-08T02:31:06.967Z,14.60
2023-05-08T02:33:09.446Z,14.50
2023-05-08T02:35:15.026Z,14.50
2023-05-08T02:37:18.000Z,14.50
2023-05-08T02:39:21.511Z,14.50
2023-05-08T02:41:25.201Z,14.50
2023-05-08T02:43:27.139Z,14.50
2023-05-08T02:45:32.546Z,14.50
2023-05-08T02:47:57.522Z,14.50
2023-05-08T02:50:14.940Z,14.50
2023-05-08T02:52:19.068Z,14.50
2023-05-08T02:54:44.025Z,14.40
2023-05-08T02:57:04.512Z,14.50
2023-05-08T02:59:16.745Z,14.40
2023-05-08T03:01:30.045Z,14.50
2023-05-08T03:03:39.833Z,14.40
2023-05-08T03:05:44.650Z,14.40
2023-05-08T03:07:49.805Z,14.40
2023-05-08T03:09:55.190Z,14.40
2023-05-08T03:12:02.344Z,14.40
2023-05-08T03:14:05.821Z,14.40
2023-05-08T03:16:10.037Z,14.40
2023-05-08T03:18:13.920Z,14.40
2023-05-08T03:20:17.933Z,14.40
2023-05-08T03:22:21.114Z,14.40
2023-05-08T03:24:23.694Z,14.30
2023-05-08T03:26:25.540Z,14.30
2023-05-08T03:28:27.804Z,14.30
2023-05-08T03:30:29.686Z,14.30
2023-05-08T03:32:32.972Z,14.30
2023-05-08T03:34:36.067Z,14.30
2023-05-08T03:36:37.780Z,14.40
2023-05-08T03:38:39.649Z,14.40
2023-05-08T03:40:42.787Z,14.30
2023-05-08T03:42:44.765Z,14.30
2023-05-08T03:44:47.633Z,14.30
2023-05-08T03:46:50.909Z,14.30
2023-05-08T03:48:53.228Z,14.30
2023-05-08T03:50:55.158Z,14.30
2023-05-08T03:52:58.107Z,14.30
2023-05-08T03:55:01.354Z,14.30
2023-05-08T03:57:03.049Z,14.30
2023-05-08T03:59:21.012Z,14.30
2023-05-08T04:01:32.251Z,14.30
2023-05-08T04:03:52.740Z,14.40
2023-05-08T04:06:10.944Z,14.40
2023-05-08T04:08:17.156Z,14.40
2023-05-08T04:10:27.235Z,14.40
2023-05-08T04:12:54.548Z,14.40
2023-05-08T04:15:00.559Z,14.30
2023-05-08T04:17:03.941Z,14.40
2023-05-08T04:19:15.376Z,14.40
2023-05-08T04:21:22.698Z,14.40
2023-05-08T04:23:24.774Z,14.30
2023-05-08T04:25:27.045Z,14.40
2023-05-08T04:27:28.741Z,14.30
2023-05-08T04:29:31.151Z,14.40
2023-05-08T04:31:34.556Z,14.40
2023-05-08T04:33:36.718Z,14.40
2023-05-08T04:35:38.518Z,14.40
2023-05-08T04:37:41.339Z,14.40
2023-05-08T04:39:43.825Z,14.40
2023-05-08T04:41:45.626Z,14.40
2023-05-08T04:43:47.414Z,14.40
2023-05-08T04:45:49.076Z,14.50
2023-05-08T04:47:51.034Z,14.50
2023-05-08T04:49:52.752Z,14.50
2023-05-08T04:51:54.435Z,14.60
2023-05-08T04:53:56.149Z,14.70
2023-05-08T04:55:58.536Z,14.70
2023-05-08T04:58:00.159Z,14.80
2023-05-08T05:00:01.962Z,14.80
2023-05-08T05:02:06.018Z,14.70
2023-05-08T05:04:07.928Z,14.80
2023-05-08T05:06:09.688Z,14.80
2023-05-08T05:08:11.333Z,14.80
2023-05-08T05:10:13.044Z,14.90
2023-05-08T05:12:14.664Z,14.90
2023-05-08T05:14:16.266Z,14.90
2023-05-08T05:16:18.094Z,15.00
2023-05-08T05:18:20.455Z,15.00
2023-05-08T05:20:22.098Z,14.90
2023-05-08T05:22:23.824Z,14.90
2023-05-08T05:24:25.454Z,14.90
2023-05-08T05:26:27.404Z,14.90
2023-05-08T05:28:29.123Z,15.00
2023-05-08T05:30:30.761Z,15.10
2023-05-08T05:32:32.481Z,15.00
2023-05-08T05:34:34.290Z,15.00
2023-05-08T05:36:36.439Z,15.00
2023-05-08T05:38:38.187Z,15.00
2023-05-08T05:40:39.865Z,15.00
2023-05-08T05:42:41.559Z,15.00
2023-05-08T05:44:43.274Z,14.90
2023-05-08T05:46:45.532Z,14.90
2023-05-08T05:48:47.239Z,14.90
2023-05-08T05:50:48.971Z,14.90
2023-05-08T05:52:50.705Z,14.90
2023-05-08T05:54:52.500Z,14.90
2023-05-08T05:56:54.893Z,14.90
2023-05-08T05:58:56.530Z,15.00
2023-05-08T06:00:58.771Z,15.00
2023-05-08T06:03:02.335Z,15.00
2023-05-08T06:05:04.836Z,15.00
2023-05-08T06:07:06.440Z,15.00
2023-05-08T06:09:08.097Z,15.10
2023-05-08T06:11:09.828Z,15.20
2023-05-08T06:13:11.654Z,15.20
2023-05-08T06:15:15.128Z,15.20
2023-05-08T06:17:17.551Z,15.10
2023-05-08T06:19:19.319Z,15.10
2023-05-08T06:21:21.171Z,15.10
2023-05-08T06:23:22.794Z,15.20
2023-05-08T06:25:24.568Z,15.20
2023-05-08T06:27:26.346Z,15.30
2023-05-08T06:29:28.130Z,15.30
2023-05-08T06:31:29.960Z,15.30
2023-05-08T06:33:31.814Z,15.40
2023-05-08T06:35:33.529Z,15.40
2023-05-08T06:37:35.145Z,15.50
2023-05-08T06:39:36.974Z,15.50
2023-05-08T06:41:38.759Z,15.50
2023-05-08T06:43:40.418Z,15.50
2023-05-08T06:45:43.200Z,15.50
2023-05-08T06:47:45.208Z,15.40
2023-05-08T06:49:46.984Z,15.40
2023-05-08T06:51:48.777Z,15.50
2023-05-08T06:53:50.507Z,15.40
2023-05-08T06:55:52.253Z,15.40
2023-05-08T06:57:53.946Z,15.40
2023-05-08T06:59:56.028Z,15.40
2023-05-08T07:01:57.904Z,15.50
2023-05-08T07:04:00.594Z,15.50
2023-05-08T07:06:02.290Z,15.50
2023-05-08T07:08:03.967Z,15.50
2023-05-08T07:10:07.257Z,15.50
2023-05-08T07:12:09.838Z,15.50
2023-05-08T07:14:11.562Z,15.50
2023-05-08T07:16:13.377Z,15.60
2023-05-08T07:18:15.123Z,15.60
2023-05-08T07:20:16.795Z,15.60
2023-05-08T07:22:18.611Z,15.70
2023-05-08T07:24:20.398Z,15.70
2023-05-08T07:26:22.675Z,15.80
2023-05-08T07:28:24.423Z,15.80
2023-05-08T07:30:26.373Z,15.80
2023-05-08T07:32:28.125Z,15.70
2023-05-08T07:34:29.764Z,15.80
2023-05-08T07:36:31.490Z,15.80
2023-05-08T07:38:33.268Z,15.80
2023-05-08T07:40:35.194Z,15.80
2023-05-08T07:42:43.786Z,15.70
2023-05-08T07:44:54.493Z,15.80
2023-05-08T07:46:57.055Z,15.80
2023-05-08T07:48:58.810Z,15.90
2023-05-08T07:51:00.417Z,16.00
2023-05-08T07:53:02.140Z,15.90
2023-05-08T07:55:04.206Z,15.90
2023-05-08T07:57:05.946Z,16.00
2023-05-08T07:59:07.672Z,15.90
2023-05-08T08:01:09.270Z,16.10
2023-05-08T08:03:11.019Z,16.10
2023-05-08T08:05:13.041Z,16.20
2023-05-08T08:07:17.915Z,16.30
2023-05-08T08:09:19.598Z,16.40
2023-05-08T08:11:21.345Z,16.30
2023-05-08T08:13:23.114Z,16.30
2023-05-08T08:15:24.853Z,16.40
2023-05-08T08:17:28.671Z,16.40
2023-05-08T08:19:30.693Z,16.40
2023-05-08T08:21:32.805Z,16.40
2023-05-08T08:23:34.587Z,16.50
2023-05-08T08:25:36.213Z,16.60
2023-05-08T08:27:37.853Z,16.50
2023-05-08T08:29:39.450Z,16.50
2023-05-08T08:31:41.208Z,16.40
2023-05-08T08:33:43.268Z,16.40
2023-05-08T08:35:44.863Z,16.40
2023-05-08T08:37:46.553Z,16.50
2023-05-08T08:39:48.615Z,16.50
2023-05-08T08:41:50.324Z,16.60
2023-05-08T08:43:52.119Z,16.60
2023-05-08T08:45:53.827Z,16.70
2023-05-08T08:47:56.806Z,16.60
2023-05-08T08:49:59.077Z,16.70
2023-05-08T08:52:11.461Z,16.70
2023-05-08T08:54:13.913Z,16.70
2023-05-08T08:56:16.832Z,16.70
2023-05-08T08:58:26.289Z,16.70
2023-05-08T09:00:29.904Z,16.80
2023-05-08T09:02:31.944Z,16.80
2023-05-08T09:04:33.628Z,16.90
2023-05-08T09:06:35.759Z,17.00
2023-05-08T09:08:37.500Z,17.10
2023-05-08T09:10:39.138Z,17.10
2023-05-08T09:12:41.102Z,17.10
2023-05-08T09:14:42.819Z,17.20
2023-05-08T09:16:45.225Z,17.20
2023-05-08T09:18:47.000Z,17.30
2023-05-08T09:20:49.244Z,17.20
2023-05-08T09:22:52.810Z,17.00
2023-05-08T09:24:54.567Z,17.00
2023-05-08T09:26:56.285Z,17.00
2023-05-08T09:29:10.142Z,16.90
2023-05-08T09:31:11.785Z,16.80
2023-05-08T09:33:13.625Z,16.90
2023-05-08T09:35:15.524Z,17.00
2023-05-08T09:37:17.408Z,17.00
2023-05-08T09:39:22.313Z,16.90
2023-05-08T09:41:24.474Z,16.90
2023-05-08T09:43:26.337Z,17.10
2023-05-08T09:45:29.206Z,17.10
2023-05-08T09:47:31.670Z,17.10
2023-05-08T09:49:33.321Z,17.00
2023-05-08T09:51:35.038Z,16.90
2023-05-08T09:53:36.703Z,17.10
2023-05-08T09:55:48.054Z,17.10
2023-05-08T09:57:57.171Z,17.10
2023-05-08T10:00:07.406Z,17.10
2023-05-08T10:02:12.854Z,17.20
2023-05-08T10:04:14.832Z,17.10
2023-05-08T10:06:16.513Z,17.20
2023-05-08T10:08:18.132Z,17.20
2023-05-08T10:10:26.914Z,17.20
2023-05-08T10:12:28.856Z,17.30
2023-05-08T10:14:30.517Z,17.30
2023-05-08T10:16:36.690Z,17.20
2023-05-08T10:18:39.490Z,17.30
2023-05-08T10:20:42.526Z,17.30
2023-05-08T10:22:44.596Z,17.40
2023-05-08T10:24:47.133Z,17.20
2023-05-08T10:27:05.543Z,17.30
2023-05-08T10:29:11.662Z,17.30
2023-05-08T10:31:17.697Z,16.90
2023-05-08T10:33:25.434Z,16.90
2023-05-08T10:35:27.464Z,17.10
2023-05-08T10:37:29.865Z,17.50
2023-05-08T10:39:32.835Z,17.60
2023-05-08T10:41:35.989Z,17.60
2023-05-08T10:43:41.230Z,17.60
2023-05-08T10:45:43.305Z,17.60
2023-05-08T10:47:48.902Z,17.50
2023-05-08T10:50:05.844Z,17.70
2023-05-08T10:52:09.916Z,17.80
2023-05-08T10:54:13.736Z,17.90
2023-05-08T10:56:15.511Z,17.80
2023-05-08T10:58:23.317Z,17.60
2023-05-08T11:00:25.152Z,17.70
2023-05-08T11:02:29.094Z,17.80
2023-05-08T11:04:31.031Z,17.70
2023-05-08T11:06:43.824Z,17.70
2023-05-08T11:08:49.780Z,17.80
2023-05-08T11:11:00.584Z,17.70
2023-05-08T11:13:03.005Z,17.80
2023-05-08T11:15:06.537Z,17.70
2023-05-08T11:17:08.846Z,17.70
2023-05-08T11:19:17.391Z,17.90
2023-05-08T11:21:21.999Z,17.90
2023-05-08T11:23:27.433Z,18.10
2023-05-08T11:25:43.359Z,18.10
2023-05-08T11:27:48.111Z,18.20
2023-05-08T11:30:09.840Z,18.00
2023-05-08T11:32:11.727Z,17.90
2023-05-08T11:34:32.172Z,17.70
2023-05-08T11:36:37.002Z,17.60
2023-05-08T11:38:38.904Z,17.50
2023-05-08T11:40:47.646Z,17.40
2023-05-08T11:42:49.316Z,17.50
2023-05-08T11:45:09.855Z,17.60
2023-05-08T11:47:16.111Z,17.80
2023-05-08T11:49:21.493Z,17.70
2023-05-08T11:51:25.725Z,17.90
2023-05-08T11:53:27.816Z,18.10
2023-05-08T11:55:29.447Z,18.20
2023-05-08T11:57:32.275Z,18.30
2023-05-08T11:59:37.635Z,18.50
2023-05-08T12:01:39.362Z,18.60
2023-05-08T12:03:41.082Z,18.80
2023-05-08T12:05:43.106Z,18.90
2023-05-08T12:07:44.993Z,18.80
2023-05-08T12:09:47.061Z,18.90
2023-05-08T12:11:56.455Z,18.80
2023-05-08T12:13:58.137Z,18.80
2023-05-08T12:16:00.508Z,18.60
2023-05-08T12:18:04.922Z,18.10
2023-05-08T12:20:11.252Z,18.60
2023-05-08T12:22:13.002Z,19.10
2023-05-08T12:24:16.397Z,18.80
2023-05-08T12:26:18.032Z,19.10
2023-05-08T12:28:19.727Z,19.40
2023-05-08T12:30:21.527Z,19.60
2023-05-08T12:32:23.600Z,19.80
2023-05-08T12:34:25.455Z,19.50
2023-05-08T12:36:27.155Z,19.30
2023-05-08T12:38:29.864Z,19.40
2023-05-08T12:40:33.060Z,19.30
2023-05-08T12:42:50.915Z,19.20
2023-05-08T12:44:52.782Z,19.20
2023-05-08T12:46:55.518Z,19.00
2023-05-08T12:49:01.326Z,18.80
2023-05-08T12:51:03.958Z,18.60
2023-05-08T12:53:06.703Z,18.60
2023-05-08T12:55:20.667Z,18.50
2023-05-08T12:57:22.719Z,18.40
2023-05-08T12:59:33.549Z,18.30
2023-05-08T13:01:35.547Z,18.30
2023-05-08T13:03:37.745Z,18.30
2023-05-08T13:05:46.009Z,18.30
2023-05-08T13:07:48.203Z,18.40
2023-05-08T13:10:00.973Z,18.40
2023-05-08T13:12:02.662Z,18.50
2023-05-08T13:14:04.312Z,18.50
2023-05-08T13:16:06.708Z,18.70
2023-05-08T13:18:08.618Z,18.80
2023-05-08T13:20:11.386Z,18.80
2023-05-08T13:22:13.320Z,18.80
2023-05-08T13:24:15.103Z,18.80
2023-05-08T13:26:16.817Z,18.90
2023-05-08T13:28:18.493Z,19.10
2023-05-08T13:30:22.103Z,19.30
2023-05-08T13:32:23.795Z,19.40
2023-05-08T13:34:25.550Z,19.40
2023-05-08T13:36:27.381Z,19.40
2023-05-08T13:38:28.974Z,19.50
2023-05-08T13:40:31.322Z,19.50
2023-05-08T13:42:33.145Z,19.50
2023-05-08T13:44:34.736Z,19.40
2023-05-08T13:46:36.349Z,19.40
2023-05-08T13:48:38.118Z,19.40
2023-05-08T13:50:39.824Z,19.50
2023-05-08T13:52:41.842Z,19.60
2023-05-08T13:54:43.449Z,19.60
2023-05-08T13:56:46.399Z,19.70
2023-05-08T13:58:48.109Z,19.50
2023-05-08T14:00:50.000Z,19.50
2023-05-08T14:02:53.111Z,19.50
2023-05-08T14:05:08.716Z,19.50
2023-05-08T14:07:13.364Z,19.70
2023-05-08T14:09:14.992Z,19.60
2023-05-08T14:11:16.911Z,19.70
2023-05-08T14:13:18.716Z,19.80
2023-05-08T14:15:22.199Z,19.80
2023-05-08T14:17:25.442Z,20.00
2023-05-08T14:19:27.212Z,20.10
2023-05-08T14:21:28.968Z,20.20
2023-05-08T14:23:30.661Z,20.30
2023-05-08T14:25:32.319Z,20.30
2023-05-08T14:27:33.992Z,20.30
2023-05-08T14:29:35.785Z,20.30
2023-05-08T14:31:37.450Z,20.30
2023-05-08T14:33:39.145Z,20.40
2023-05-08T14:35:43.304Z,20.30
2023-05-08T14:37:45.280Z,20.20
2023-05-08T14:39:47.050Z,20.10
2023-05-08T14:42:10.404Z,20.00
2023-05-08T14:44:10.466Z,20.00
2023-05-08T14:46:12.256Z,20.20
2023-05-08T14:48:14.455Z,20.50
2023-05-08T14:50:16.368Z,20.60
2023-05-08T14:52:18.025Z,20.40
2023-05-08T14:54:19.923Z,20.30
2023-05-08T14:56:24.493Z,20.10
2023-05-08T14:58:26.307Z,19.90
2023-05-08T15:00:28.031Z,19.70
2023-05-08T15:02:29.764Z,19.50
2023-05-08T15:04:31.406Z,19.50
2023-05-08T15:06:35.507Z,19.50
2023-05-08T15:08:37.125Z,19.40
2023-05-08T15:10:38.786Z,19.30
2023-05-08T15:12:40.526Z,19.20
2023-05-08T15:14:42.323Z,19.20
2023-05-08T15:16:44.169Z,19.10
2023-05-08T15:18:46.033Z,19.00
2023-05-08T15:20:47.682Z,18.90
2023-05-08T15:22:49.357Z,18.90
2023-05-08T15:24:50.989Z,18.80
2023-05-08T15:26:52.651Z,18.70
2023-05-08T15:28:54.327Z,18.80
2023-05-08T15:30:56.056Z,18.90
2023-05-08T15:32:57.832Z,18.90
2023-05-08T15:34:59.557Z,18.90
2023-05-08T15:37:01.284Z,19.00
2023-05-08T15:39:03.019Z,19.10
2023-05-08T15:41:05.180Z,19.50
2023-05-08T15:43:07.002Z,19.80
2023-05-08T15:45:08.916Z,20.00
2023-05-08T15:47:10.644Z,20.10
2023-05-08T15:49:12.275Z,20.30
2023-05-08T15:51:14.033Z,21.20
2023-05-08T15:53:15.656Z,21.50
2023-05-08T15:55:17.735Z,21.30
2023-05-08T15:57:19.364Z,20.90
2023-05-08T15:59:21.025Z,20.70
2023-05-08T16:01:22.790Z,20.60
2023-05-08T16:03:24.707Z,20.60
2023-05-08T16:05:26.522Z,20.20
2023-05-08T16:07:28.193Z,20.00
2023-05-08T16:09:29.813Z,19.90
2023-05-08T16:11:31.989Z,19.80
2023-05-08T16:13:33.674Z,19.80
2023-05-08T16:15:35.331Z,19.80
2023-05-08T16:17:37.025Z,19.70
2023-05-08T16:19:38.905Z,19.80
2023-05-08T16:21:40.702Z,19.90
2023-05-08T16:23:42.381Z,19.80
2023-05-08T16:25:44.039Z,19.80
2023-05-08T16:27:45.728Z,19.80
2023-05-08T16:29:47.387Z,19.70
2023-05-08T16:31:49.006Z,19.60
2023-05-08T16:33:50.650Z,19.60
2023-05-08T16:35:52.319Z,19.50
2023-05-08T16:37:54.065Z,19.30
2023-05-08T16:39:55.686Z,19.20
2023-05-08T16:41:57.362Z,19.20
2023-05-08T16:43:58.969Z,19.10
2023-05-08T16:46:00.769Z,19.10
2023-05-08T16:48:02.678Z,19.00
2023-05-08T16:50:04.925Z,19.00
2023-05-08T16:52:06.769Z,18.90
2023-05-08T16:54:08.457Z,18.90
2023-05-08T16:56:10.359Z,18.90
2023-05-08T16:58:11.999Z,18.80
2023-05-08T17:00:14.121Z,18.80
2023-05-08T17:02:18.868Z,18.80
2023-05-08T17:04:20.844Z,18.80
2023-05-08T17:06:22.569Z,18.70
2023-05-08T17:08:24.281Z,18.70
2023-05-08T17:10:26.049Z,18.60
2023-05-08T17:12:27.633Z,18.50
2023-05-08T17:14:29.260Z,18.40
2023-05-08T17:16:30.972Z,18.30
2023-05-08T17:18:32.567Z,18.20
2023-05-08T17:20:40.668Z,18.00
2023-05-08T17:22:42.626Z,18.00
2023-05-08T17:24:44.268Z,17.90
2023-05-08T17:26:45.877Z,17.80
2023-05-08T17:28:47.510Z,17.80
2023-05-08T17:30:49.196Z,17.70
2023-05-08T17:32:51.753Z,17.90
2023-05-08T17:34:53.503Z,17.80
2023-05-08T17:36:55.385Z,17.70
2023-05-08T17:38:57.005Z,17.60
2023-05-08T17:40:58.639Z,17.60
2023-05-08T17:43:00.354Z,17.60
2023-05-08T17:45:04.835Z,17.50
2023-05-08T17:47:06.520Z,17.50
2023-05-08T17:49:08.255Z,17.40
2023-05-08T17:51:13.575Z,17.30
2023-05-08T17:53:15.289Z,17.30
2023-05-08T17:55:17.139Z,17.30
2023-05-08T17:57:18.829Z,17.30
2023-05-08T17:59:20.468Z,17.20
2023-05-08T18:01:22.113Z,17.20
2023-05-08T18:03:24.165Z,17.20
2023-05-08T18:05:25.929Z,17.10
2023-05-08T18:07:27.591Z,17.10
2023-05-08T18:09:29.280Z,17.10
2023-05-08T18:11:31.060Z,17.00
2023-05-08T18:13:33.599Z,17.00
2023-05-08T18:15:38.800Z,17.00
2023-05-08T18:17:40.973Z,16.90
2023-05-08T18:19:42.714Z,16.80
2023-05-08T18:21:44.408Z,16.80
2023-05-08T18:23:46.155Z,16.70
2023-05-08T18:25:47.839Z,16.70
2023-05-08T18:27:50.329Z,16.60
2023-05-08T18:29:52.192Z,16.60
2023-05-08T18:31:53.907Z,16.50
2023-05-08T18:33:55.585Z,16.50
2023-05-08T18:35:57.376Z,16.50
2023-05-08T18:37:59.106Z,16.40
2023-05-08T18:40:00.950Z,16.40
2023-05-08T18:42:03.049Z,16.40
2023-05-08T18:44:07.824Z,16.40
2023-05-08T18:46:12.015Z,16.40
2023-05-08T18:48:14.103Z,16.40
2023-05-08T18:50:16.059Z,16.40
2023-05-08T18:52:18.133Z,16.30
2023-05-08T18:54:19.882Z,16.40
2023-05-08T18:56:22.185Z,16.30
2023-05-08T18:58:24.000Z,16.40
2023-05-08T19:00:25.661Z,16.40
2023-05-08T19:02:28.141Z,16.50
2023-05-08T19:04:30.052Z,16.50
2023-05-08T19:06:32.780Z,16.50
2023-05-08T19:08:34.424Z,16.50
2023-05-08T19:10:36.126Z,16.40
2023-05-08T19:12:37.831Z,16.30
2023-05-08T19:14:39.525Z,16.30
2023-05-08T19:16:41.184Z,16.30
2023-05-08T19:18:42.898Z,16.30
2023-05-08T19:20:44.639Z,16.30
2023-05-08T19:22:47.187Z,16.20
2023-05-08T19:24:48.973Z,16.20
2023-05-08T19:26:50.819Z,16.20
2023-05-08T19:28:52.488Z,16.20
2023-05-08T19:30:54.144Z,16.10
2023-05-08T19:32:55.860Z,16.10
2023-05-08T19:34:57.702Z,16.10
2023-05-08T19:36:59.452Z,16.10
2023-05-08T19:39:02.520Z,16.10
2023-05-08T19:41:04.228Z,16.10
2023-05-08T19:43:05.913Z,16.10
2023-05-08T19:45:07.777Z,16.00
2023-05-08T19:47:09.500Z,15.90
2023-05-08T19:49:11.205Z,15.90
2023-05-08T19:51:13.274Z,15.80
2023-05-08T19:53:15.016Z,15.80
2023-05-08T19:55:17.038Z,15.70
2023-05-08T19:57:18.692Z,15.60
2023-05-08T19:59:20.297Z,15.60
2023-05-08T20:01:22.027Z,15.50
2023-05-08T20:03:24.020Z,15.50
2023-05-08T20:05:25.723Z,15.50
2023-05-08T20:07:27.418Z,15.50
2023-05-08T20:09:29.116Z,15.50
2023-05-08T20:11:30.913Z,15.60
2023-05-08T20:13:32.636Z,15.60
2023-05-08T20:15:34.459Z,15.60
2023-05-08T20:17:36.285Z,15.60
2023-05-08T20:19:38.051Z,15.60
2023-05-08T20:21:39.790Z,15.60
2023-05-08T20:23:41.592Z,15.50
2023-05-08T20:25:46.385Z,15.50
2023-05-08T20:27:48.063Z,15.50
2023-05-08T20:29:49.871Z,15.50
2023-05-08T20:31:51.647Z,15.50
2023-05-08T20:33:53.712Z,15.40
2023-05-08T20:35:55.585Z,15.40
2023-05-08T20:37:57.341Z,15.30
2023-05-08T20:39:59.651Z,15.30
2023-05-08T20:42:01.301Z,15.30
2023-05-08T20:44:03.089Z,15.30
2023-05-08T20:46:05.061Z,15.20
2023-05-08T20:48:06.882Z,15.20
2023-05-08T20:50:08.710Z,15.10
2023-05-08T20:52:10.499Z,15.10
2023-05-08T20:54:12.153Z,15.10
2023-05-08T20:56:15.731Z,15.10
2023-05-08T20:58:19.036Z,15.10
2023-05-08T21:00:21.320Z,15.10
2023-05-08T21:02:23.386Z,15.00
2023-05-08T21:04:26.524Z,15.10
2023-05-08T21:06:28.820Z,15.00
2023-05-08T21:08:30.930Z,15.00
2023-05-08T21:10:32.663Z,15.00
2023-05-08T21:12:34.602Z,14.90
2023-05-08T21:14:37.278Z,14.90
2023-05-08T21:16:39.043Z,14.90
2023-05-08T21:18:40.906Z,14.90
2023-05-08T21:20:49.549Z,14.90
2023-05-08T21:22:51.279Z,15.00
2023-05-08T21:24:52.935Z,14.90
2023-05-08T21:26:54.828Z,14.90
2023-05-08T21:28:58.571Z,14.90
2023-05-08T21:31:00.672Z,14.80
2023-05-08T21:33:07.617Z,14.80
2023-05-08T21:35:10.410Z,14.80
2023-05-08T21:37:12.157Z,14.80
2023-05-08T21:39:14.725Z,14.70
2023-05-08T21:41:16.477Z,14.70
2023-05-08T21:43:18.210Z,14.70
2023-05-08T21:45:19.948Z,14.60
2023-05-08T21:47:22.860Z,14.60
2023-05-08T21:49:24.599Z,14.60
2023-05-08T21:51:26.366Z,14.60
2023-05-08T21:53:28.351Z,14.60
2023-05-08T21:55:31.691Z,14.50
2023-05-08T21:57:35.118Z,14.60
2023-05-08T21:59:36.745Z,14.70
2023-05-08T22:01:38.490Z,14.70
2023-05-08T22:03:40.511Z,14.80
2023-05-08T22:05:42.239Z,14.80
2023-05-08T22:07:43.955Z,14.70
2023-05-08T22:09:45.774Z,14.70
2023-05-08T22:11:47.595Z,14.70
2023-05-08T22:13:49.575Z,14.70
2023-05-08T22:15:51.259Z,14.70
2023-05-08T22:17:53.168Z,14.70
2023-05-08T22:19:55.102Z,14.70
2023-05-08T22:21:56.854Z,14.70
2023-05-08T22:23:58.419Z,14.70
2023-05-08T22:26:00.120Z,14.80
2023-05-08T22:28:02.148Z,14.80
2023-05-08T22:30:03.959Z,14.80
2023-05-08T22:32:05.870Z,14.80
2023-05-08T22:34:07.633Z,14.80
2023-05-08T22:36:09.607Z,14.80
2023-05-08T22:38:11.211Z,14.80
2023-05-08T22:40:13.069Z,14.70
2023-05-08T22:42:15.411Z,14.70
2023-05-08T22:44:17.147Z,14.70
2023-05-08T22:46:20.327Z,14.70
2023-05-08T22:48:22.154Z,14.70
2023-05-08T22:50:24.030Z,14.70
2023-05-08T22:52:25.652Z,14.70
2023-05-08T22:54:27.394Z,14.70
2023-05-08T22:56:29.108Z,14.60
2023-05-08T22:58:30.770Z,14.60
2023-05-08T23:00:32.359Z,14.70
2023-05-08T23:02:34.737Z,14.70
2023-05-08T23:04:36.794Z,14.60
2023-05-08T23:06:38.578Z,14.60
2023-05-08T23:08:40.266Z,14.60
2023-05-08T23:10:41.978Z,14.60
2023-05-08T23:12:43.649Z,14.60
2023-05-08T23:14:45.267Z,14.60
2023-05-08T23:16:47.063Z,14.60
2023-05-08T23:18:48.739Z,14.50
2023-05-08T23:20:50.723Z,14.40
2023-05-08T23:22:52.397Z,14.40
2023-05-08T23:24:54.201Z,14.30
2023-05-08T23:26:56.063Z,14.20
2023-05-08T23:28:57.686Z,14.10
2023-05-08T23:30:59.318Z,14.10
2023-05-08T23:33:01.132Z,14.00
2023-05-08T23:35:02.852Z,14.00
2023-05-08T23:37:04.547Z,14.00
2023-05-08T23:39:07.127Z,13.90
2023-05-08T23:41:09.465Z,13.90
2023-05-08T23:43:11.251Z,13.90
2023-05-08T23:45:13.358Z,13.90
2023-05-08T23:47:15.193Z,13.90
2023-05-08T23:49:16.848Z,13.80
2023-05-08T23:51:18.501Z,13.80
2023-05-08T23:53:20.655Z,13.80
2023-05-08T23:55:22.281Z,13.70
2023-05-08T23:57:24.252Z,13.70
2023-05-08T23:59:26.116Z,13.70
